sensor_id;sensor_type;location;lat;lon;timestamp;P1;durP1;ratioP1;P2;durP2;ratioP2
47025;SDS011;32783;51.756;-2.556;2023-06-14T00:01:49;5.88;;;5.38;;
47025;SDS011;32783;51.756;-2.556;2023-06-14T00:04:14;5.78;;;5.28;;
47025;SDS011;32783;51.756;-2.556;2023-06-14T00:06:43;6.63;;;5.32;;
47025;SDS011;32783;51.756;-2.556;2023-06-14T00:09:13;6.50;;;5.70;;
47025;SDS011;32783;51.756;-2.556;2023-06-14T00:11:39;5.30;;;4.82;;
47025;SDS011;32783;51.756;-2.556;2023-06-14T00:14:05;5.10;;;4.60;;
47025;SDS011;32783;51.756;-2.556;2023-06-14T00:16:31;6.00;;;5.40;;
47025;SDS011;32783;51.756;-2.556;2023-06-14T00:18:57;4.68;;;4.28;;
47025;SDS011;32783;51.756;-2.556;2023-06-14T00:21:23;5.30;;;4.80;;
47025;SDS011;32783;51.756;-2.556;2023-06-14T00:23:48;4.97;;;4.47;;
47025;SDS011;32783;51.756;-2.556;2023-06-14T00:26:13;6.32;;;4.22;;
47025;SDS011;32783;51.756;-2.556;2023-06-14T00:28:39;6.10;;;5.13;;
47025;SDS011;32783;51.756;-2.556;2023-06-14T00:31:06;5.18;;;4.75;;
47025;SDS011;32783;51.756;-2.556;2023-06-14T00:33:31;5.07;;;4.60;;
47025;SDS011;32783;51.756;-2.556;2023-06-14T00:35:56;4.85;;;4.45;;
47025;SDS011;32783;51.756;-2.556;2023-06-14T00:38:22;4.55;;;4.15;;
47025;SDS011;32783;51.756;-2.556;2023-06-14T00:40:47;5.07;;;4.57;;
47025;SDS011;32783;51.756;-2.556;2023-06-14T00:43:12;4.65;;;4.25;;
47025;SDS011;32783;51.756;-2.556;2023-06-14T00:45:38;4.95;;;4.55;;
47025;SDS011;32783;51.756;-2.556;2023-06-14T00:48:03;5.40;;;4.90;;
47025;SDS011;32783;51.756;-2.556;2023-06-14T00:50:31;5.63;;;4.63;;
47025;SDS011;32783;51.756;-2.556;2023-06-14T00:52:57;7.03;;;4.88;;
47025;SDS011;32783;51.756;-2.556;2023-06-14T00:55:22;5.10;;;4.60;;
47025;SDS011;32783;51.756;-2.556;2023-06-14T00:57:48;5.68;;;4.78;;
47025;SDS011;32783;51.756;-2.556;2023-06-14T01:00:14;5.45;;;4.95;;
47025;SDS011;32783;51.756;-2.556;2023-06-14T01:02:40;5.38;;;4.50;;
47025;SDS011;32783;51.756;-2.556;2023-06-14T01:05:05;4.88;;;4.47;;
47025;SDS011;32783;51.756;-2.556;2023-06-14T01:13:14;5.00;;;4.60;;
47025;SDS011;32783;51.756;-2.556;2023-06-14T01:15:45;5.07;;;4.68;;
47025;SDS011;32783;51.756;-2.556;2023-06-14T01:18:12;10.00;;;4.72;;
47025;SDS011;32783;51.756;-2.556;2023-06-14T01:20:42;4.80;;;4.40;;
47025;SDS011;32783;51.756;-2.556;2023-06-14T01:23:09;5.07;;;4.35;;
47025;SDS011;32783;51.756;-2.556;2023-06-14T01:25:37;4.90;;;4.32;;
47025;SDS011;32783;51.756;-2.556;2023-06-14T01:28:04;6.40;;;4.45;;
47025;SDS011;32783;51.756;-2.556;2023-06-14T01:30:35;5.03;;;4.53;;
47025;SDS011;32783;51.756;-2.556;2023-06-14T01:33:02;5.55;;;4.97;;
47025;SDS011;32783;51.756;-2.556;2023-06-14T01:35:28;4.88;;;4.47;;
47025;SDS011;32783;51.756;-2.556;2023-06-14T01:37:53;5.25;;;4.15;;
47025;SDS011;32783;51.756;-2.556;2023-06-14T01:40:19;4.70;;;4.10;;
47025;SDS011;32783;51.756;-2.556;2023-06-14T01:42:46;5.60;;;4.45;;
47025;SDS011;32783;51.756;-2.556;2023-06-14T01:45:13;4.68;;;4.28;;
47025;SDS011;32783;51.756;-2.556;2023-06-14T01:47:39;4.68;;;4.28;;
47025;SDS011;32783;51.756;-2.556;2023-06-14T01:50:05;4.70;;;4.30;;
47025;SDS011;32783;51.756;-2.556;2023-06-14T01:52:30;4.78;;;4.38;;
47025;SDS011;32783;51.756;-2.556;2023-06-14T01:54:56;5.15;;;4.72;;
47025;SDS011;32783;51.756;-2.556;2023-06-14T01:57:23;4.72;;;4.32;;
47025;SDS011;32783;51.756;-2.556;2023-06-14T01:59:49;4.70;;;4.13;;
47025;SDS011;32783;51.756;-2.556;2023-06-14T02:02:15;4.50;;;4.10;;
47025;SDS011;32783;51.756;-2.556;2023-06-14T02:04:41;4.85;;;4.38;;
47025;SDS011;32783;51.756;-2.556;2023-06-14T02:07:06;4.93;;;4.50;;
47025;SDS011;32783;51.756;-2.556;2023-06-14T02:09:33;5.72;;;4.97;;
47025;SDS011;32783;51.756;-2.556;2023-06-14T02:11:58;4.82;;;4.32;;
47025;SDS011;32783;51.756;-2.556;2023-06-14T02:14:24;4.47;;;4.07;;
47025;SDS011;32783;51.756;-2.556;2023-06-14T02:16:49;4.63;;;4.22;;
47025;SDS011;32783;51.756;-2.556;2023-06-14T02:19:18;5.15;;;4.65;;
47025;SDS011;32783;51.756;-2.556;2023-06-14T02:21:45;4.72;;;4.22;;
47025;SDS011;32783;51.756;-2.556;2023-06-14T02:24:11;4.43;;;4.03;;
47025;SDS011;32783;51.756;-2.556;2023-06-14T02:26:37;5.05;;;4.55;;
47025;SDS011;32783;51.756;-2.556;2023-06-14T02:29:08;4.25;;;3.85;;
47025;SDS011;32783;51.756;-2.556;2023-06-14T02:31:36;5.00;;;4.55;;
47025;SDS011;32783;51.756;-2.556;2023-06-14T02:34:01;5.43;;;4.72;;
47025;SDS011;32783;51.756;-2.556;2023-06-14T02:36:27;4.82;;;4.32;;
47025;SDS011;32783;51.756;-2.556;2023-06-14T02:38:54;4.90;;;4.50;;
47025;SDS011;32783;51.756;-2.556;2023-06-14T02:41:22;4.57;;;4.18;;
47025;SDS011;32783;51.756;-2.556;2023-06-14T02:43:47;4.70;;;4.30;;
47025;SDS011;32783;51.756;-2.556;2023-06-14T02:46:13;5.10;;;4.60;;
47025;SDS011;32783;51.756;-2.556;2023-06-14T02:48:38;5.65;;;4.15;;
47025;SDS011;32783;51.756;-2.556;2023-06-14T02:51:03;4.85;;;4.32;;
47025;SDS011;32783;51.756;-2.556;2023-06-14T02:53:29;4.93;;;4.43;;
47025;SDS011;32783;51.756;-2.556;2023-06-14T02:55:54;4.68;;;4.28;;
47025;SDS011;32783;51.756;-2.556;2023-06-14T02:58:20;4.68;;;4.28;;
47025;SDS011;32783;51.756;-2.556;2023-06-14T03:00:45;4.53;;;4.10;;
47025;SDS011;32783;51.756;-2.556;2023-06-14T03:03:11;5.30;;;4.00;;
47025;SDS011;32783;51.756;-2.556;2023-06-14T03:05:43;6.38;;;4.53;;
47025;SDS011;32783;51.756;-2.556;2023-06-14T03:08:12;5.00;;;4.57;;
47025;SDS011;32783;51.756;-2.556;2023-06-14T03:10:42;4.88;;;4.30;;
47025;SDS011;32783;51.756;-2.556;2023-06-14T03:13:08;4.68;;;3.42;;
47025;SDS011;32783;51.756;-2.556;2023-06-14T03:15:33;4.72;;;4.32;;
47025;SDS011;32783;51.756;-2.556;2023-06-14T03:17:59;4.30;;;3.90;;
47025;SDS011;32783;51.756;-2.556;2023-06-14T03:20:24;4.78;;;4.38;;
47025;SDS011;32783;51.756;-2.556;2023-06-14T03:22:58;4.68;;;4.20;;
47025;SDS011;32783;51.756;-2.556;2023-06-14T03:27:54;4.32;;;3.65;;
47025;SDS011;32783;51.756;-2.556;2023-06-14T03:30:22;4.10;;;3.70;;
47025;SDS011;32783;51.756;-2.556;2023-06-14T03:32:48;4.30;;;3.90;;
47025;SDS011;32783;51.756;-2.556;2023-06-14T03:35:14;4.40;;;4.00;;
47025;SDS011;32783;51.756;-2.556;2023-06-14T03:37:45;4.78;;;4.13;;
47025;SDS011;32783;51.756;-2.556;2023-06-14T03:40:12;4.70;;;4.30;;
47025;SDS011;32783;51.756;-2.556;2023-06-14T03:42:38;4.22;;;3.83;;
47025;SDS011;32783;51.756;-2.556;2023-06-14T03:45:04;4.38;;;3.97;;
47025;SDS011;32783;51.756;-2.556;2023-06-14T03:47:30;4.65;;;4.00;;
47025;SDS011;32783;51.756;-2.556;2023-06-14T03:49:55;4.85;;;3.88;;
47025;SDS011;32783;51.756;-2.556;2023-06-14T03:52:21;3.47;;;3.17;;
47025;SDS011;32783;51.756;-2.556;2023-06-14T03:54:48;4.43;;;3.60;;
47025;SDS011;32783;51.756;-2.556;2023-06-14T03:57:13;4.00;;;3.60;;
47025;SDS011;32783;51.756;-2.556;2023-06-14T03:59:39;4.25;;;3.85;;
47025;SDS011;32783;51.756;-2.556;2023-06-14T04:02:04;4.05;;;3.65;;
47025;SDS011;32783;51.756;-2.556;2023-06-14T04:04:29;4.18;;;3.78;;
47025;SDS011;32783;51.756;-2.556;2023-06-14T04:06:55;4.05;;;3.65;;
47025;SDS011;32783;51.756;-2.556;2023-06-14T04:09:25;3.75;;;3.38;;
47025;SDS011;32783;51.756;-2.556;2023-06-14T04:11:53;4.45;;;3.90;;
47025;SDS011;32783;51.756;-2.556;2023-06-14T04:14:19;3.35;;;3.05;;
47025;SDS011;32783;51.756;-2.556;2023-06-14T04:16:46;4.00;;;3.55;;
47025;SDS011;32783;51.756;-2.556;2023-06-14T04:19:11;3.60;;;3.30;;
47025;SDS011;32783;51.756;-2.556;2023-06-14T04:21:37;4.28;;;3.58;;
47025;SDS011;32783;51.756;-2.556;2023-06-14T04:24:02;4.43;;;3.60;;
47025;SDS011;32783;51.756;-2.556;2023-06-14T04:26:28;3.58;;;3.28;;
47025;SDS011;32783;51.756;-2.556;2023-06-14T04:28:54;3.97;;;3.42;;
47025;SDS011;32783;51.756;-2.556;2023-06-14T04:31:21;4.15;;;3.63;;
47025;SDS011;32783;51.756;-2.556;2023-06-14T04:33:50;3.57;;;3.27;;
47025;SDS011;32783;51.756;-2.556;2023-06-14T04:36:15;3.58;;;2.95;;
47025;SDS011;32783;51.756;-2.556;2023-06-14T04:38:42;3.97;;;3.58;;
47025;SDS011;32783;51.756;-2.556;2023-06-14T04:41:10;3.83;;;2.85;;
47025;SDS011;32783;51.756;-2.556;2023-06-14T04:43:36;3.58;;;2.97;;
47025;SDS011;32783;51.756;-2.556;2023-06-14T04:46:05;3.72;;;3.20;;
47025;SDS011;32783;51.756;-2.556;2023-06-14T04:48:35;3.50;;;2.90;;
47025;SDS011;32783;51.756;-2.556;2023-06-14T04:51:02;4.55;;;3.08;;
47025;SDS011;32783;51.756;-2.556;2023-06-14T04:53:29;2.95;;;2.75;;
47025;SDS011;32783;51.756;-2.556;2023-06-14T04:55:54;3.33;;;2.97;;
47025;SDS011;32783;51.756;-2.556;2023-06-14T04:58:20;4.40;;;2.92;;
47025;SDS011;32783;51.756;-2.556;2023-06-14T05:00:45;2.90;;;2.60;;
47025;SDS011;32783;51.756;-2.556;2023-06-14T05:03:10;4.97;;;2.75;;
47025;SDS011;32783;51.756;-2.556;2023-06-14T05:05:38;3.47;;;3.17;;
47025;SDS011;32783;51.756;-2.556;2023-06-14T05:08:04;3.28;;;2.97;;
47025;SDS011;32783;51.756;-2.556;2023-06-14T05:10:30;3.42;;;2.90;;
47025;SDS011;32783;51.756;-2.556;2023-06-14T05:12:56;3.20;;;2.90;;
47025;SDS011;32783;51.756;-2.556;2023-06-14T05:15:21;4.18;;;3.78;;
47025;SDS011;32783;51.756;-2.556;2023-06-14T05:17:50;3.08;;;2.78;;
47025;SDS011;32783;51.756;-2.556;2023-06-14T05:20:20;2.97;;;2.67;;
47025;SDS011;32783;51.756;-2.556;2023-06-14T05:22:45;3.22;;;2.53;;
47025;SDS011;32783;51.756;-2.556;2023-06-14T05:25:11;3.17;;;2.40;;
47025;SDS011;32783;51.756;-2.556;2023-06-14T05:27:36;3.88;;;2.72;;
47025;SDS011;32783;51.756;-2.556;2023-06-14T05:30:02;4.95;;;2.88;;
47025;SDS011;32783;51.756;-2.556;2023-06-14T05:32:28;2.97;;;2.67;;
47025;SDS011;32783;51.756;-2.556;2023-06-14T05:34:54;2.60;;;2.40;;
47025;SDS011;32783;51.756;-2.556;2023-06-14T05:37:19;2.83;;;2.35;;
47025;SDS011;32783;51.756;-2.556;2023-06-14T05:39:45;3.03;;;2.72;;
47025;SDS011;32783;51.756;-2.556;2023-06-14T05:42:10;3.10;;;2.50;;
47025;SDS011;32783;51.756;-2.556;2023-06-14T05:44:36;3.28;;;2.47;;
47025;SDS011;32783;51.756;-2.556;2023-06-14T05:47:01;2.67;;;2.47;;
47025;SDS011;32783;51.756;-2.556;2023-06-14T05:49:27;3.40;;;2.30;;
47025;SDS011;32783;51.756;-2.556;2023-06-14T05:51:52;3.70;;;2.95;;
47025;SDS011;32783;51.756;-2.556;2023-06-14T05:54:17;3.28;;;2.58;;
47025;SDS011;32783;51.756;-2.556;2023-06-14T05:56:43;2.42;;;2.22;;
47025;SDS011;32783;51.756;-2.556;2023-06-14T05:59:08;3.00;;;2.30;;
47025;SDS011;32783;51.756;-2.556;2023-06-14T06:01:33;3.65;;;2.30;;
47025;SDS011;32783;51.756;-2.556;2023-06-14T06:04:01;3.70;;;2.42;;
47025;SDS011;32783;51.756;-2.556;2023-06-14T06:06:27;3.25;;;2.35;;
47025;SDS011;32783;51.756;-2.556;2023-06-14T06:08:53;2.92;;;2.13;;
47025;SDS011;32783;51.756;-2.556;2023-06-14T06:11:18;3.20;;;2.47;;
47025;SDS011;32783;51.756;-2.556;2023-06-14T06:13:43;3.42;;;2.40;;
47025;SDS011;32783;51.756;-2.556;2023-06-14T06:16:09;2.55;;;2.35;;
47025;SDS011;32783;51.756;-2.556;2023-06-14T06:18:35;3.47;;;2.92;;
47025;SDS011;32783;51.756;-2.556;2023-06-14T06:21:00;2.75;;;2.38;;
47025;SDS011;32783;51.756;-2.556;2023-06-14T06:23:28;3.58;;;2.58;;
47025;SDS011;32783;51.756;-2.556;2023-06-14T06:25:53;2.97;;;2.55;;
47025;SDS011;32783;51.756;-2.556;2023-06-14T06:28:18;3.63;;;2.20;;
47025;SDS011;32783;51.756;-2.556;2023-06-14T06:30:44;5.00;;;2.72;;
47025;SDS011;32783;51.756;-2.556;2023-06-14T06:33:09;3.42;;;2.38;;
47025;SDS011;32783;51.756;-2.556;2023-06-14T06:35:35;3.25;;;2.40;;
47025;SDS011;32783;51.756;-2.556;2023-06-14T06:38:01;7.97;;;2.78;;
47025;SDS011;32783;51.756;-2.556;2023-06-14T06:40:26;3.03;;;2.42;;
47025;SDS011;32783;51.756;-2.556;2023-06-14T06:42:51;4.10;;;2.53;;
47025;SDS011;32783;51.756;-2.556;2023-06-14T06:45:18;4.60;;;2.60;;
47025;SDS011;32783;51.756;-2.556;2023-06-14T06:47:43;3.00;;;2.13;;
47025;SDS011;32783;51.756;-2.556;2023-06-14T06:50:09;5.45;;;2.60;;
47025;SDS011;32783;51.756;-2.556;2023-06-14T06:52:34;2.78;;;2.35;;
47025;SDS011;32783;51.756;-2.556;2023-06-14T06:55:00;3.00;;;2.55;;
47025;SDS011;32783;51.756;-2.556;2023-06-14T06:57:25;3.75;;;2.30;;
47025;SDS011;32783;51.756;-2.556;2023-06-14T06:59:50;3.28;;;2.40;;
47025;SDS011;32783;51.756;-2.556;2023-06-14T07:02:16;3.05;;;2.22;;
47025;SDS011;32783;51.756;-2.556;2023-06-14T07:04:42;4.47;;;2.80;;
47025;SDS011;32783;51.756;-2.556;2023-06-14T07:07:07;3.53;;;2.70;;
47025;SDS011;32783;51.756;-2.556;2023-06-14T07:09:34;4.78;;;2.80;;
47025;SDS011;32783;51.756;-2.556;2023-06-14T07:12:00;3.22;;;2.38;;
47025;SDS011;32783;51.756;-2.556;2023-06-14T07:14:25;2.65;;;2.42;;
47025;SDS011;32783;51.756;-2.556;2023-06-14T07:16:50;2.75;;;2.35;;
47025;SDS011;32783;51.756;-2.556;2023-06-14T07:19:16;6.15;;;2.30;;
47025;SDS011;32783;51.756;-2.556;2023-06-14T07:21:42;3.67;;;2.30;;
47025;SDS011;32783;51.756;-2.556;2023-06-14T07:24:07;5.72;;;2.83;;
47025;SDS011;32783;51.756;-2.556;2023-06-14T07:26:33;2.40;;;2.13;;
47025;SDS011;32783;51.756;-2.556;2023-06-14T07:28:59;5.65;;;2.30;;
47025;SDS011;32783;51.756;-2.556;2023-06-14T07:31:25;4.97;;;2.63;;
47025;SDS011;32783;51.756;-2.556;2023-06-14T07:33:51;4.47;;;2.67;;
47025;SDS011;32783;51.756;-2.556;2023-06-14T07:36:23;4.35;;;2.28;;
47025;SDS011;32783;51.756;-2.556;2023-06-14T07:38:48;3.53;;;2.72;;
47025;SDS011;32783;51.756;-2.556;2023-06-14T07:41:14;4.90;;;2.50;;
47025;SDS011;32783;51.756;-2.556;2023-06-14T07:43:39;5.18;;;2.63;;
47025;SDS011;32783;51.756;-2.556;2023-06-14T07:46:04;4.53;;;2.70;;
47025;SDS011;32783;51.756;-2.556;2023-06-14T07:48:30;5.20;;;2.75;;
47025;SDS011;32783;51.756;-2.556;2023-06-14T07:50:55;4.30;;;2.63;;
47025;SDS011;32783;51.756;-2.556;2023-06-14T07:53:21;5.03;;;2.67;;
47025;SDS011;32783;51.756;-2.556;2023-06-14T07:55:46;5.13;;;2.72;;
47025;SDS011;32783;51.756;-2.556;2023-06-14T07:58:12;4.03;;;2.42;;
47025;SDS011;32783;51.756;-2.556;2023-06-14T08:00:38;4.53;;;2.42;;
47025;SDS011;32783;51.756;-2.556;2023-06-14T08:03:04;3.15;;;2.38;;
47025;SDS011;32783;51.756;-2.556;2023-06-14T08:05:30;4.43;;;2.28;;
47025;SDS011;32783;51.756;-2.556;2023-06-14T08:07:57;3.33;;;2.20;;
47025;SDS011;32783;51.756;-2.556;2023-06-14T08:10:23;6.13;;;3.08;;
47025;SDS011;32783;51.756;-2.556;2023-06-14T08:12:49;4.40;;;2.78;;
47025;SDS011;32783;51.756;-2.556;2023-06-14T08:15:18;6.68;;;2.83;;
47025;SDS011;32783;51.756;-2.556;2023-06-14T08:17:44;4.05;;;2.53;;
47025;SDS011;32783;51.756;-2.556;2023-06-14T08:20:11;5.50;;;2.60;;
47025;SDS011;32783;51.756;-2.556;2023-06-14T08:22:42;6.43;;;2.28;;
47025;SDS011;32783;51.756;-2.556;2023-06-14T08:25:08;3.35;;;2.05;;
47025;SDS011;32783;51.756;-2.556;2023-06-14T08:27:34;3.47;;;2.45;;
47025;SDS011;32783;51.756;-2.556;2023-06-14T08:30:03;3.35;;;2.60;;
47025;SDS011;32783;51.756;-2.556;2023-06-14T08:32:30;5.50;;;2.67;;
47025;SDS011;32783;51.756;-2.556;2023-06-14T08:34:56;3.85;;;2.65;;
47025;SDS011;32783;51.756;-2.556;2023-06-14T08:37:22;6.50;;;2.25;;
47025;SDS011;32783;51.756;-2.556;2023-06-14T08:39:51;3.15;;;2.30;;
47025;SDS011;32783;51.756;-2.556;2023-06-14T08:42:19;3.00;;;2.00;;
47025;SDS011;32783;51.756;-2.556;2023-06-14T08:44:48;6.03;;;2.72;;
47025;SDS011;32783;51.756;-2.556;2023-06-14T08:47:15;5.40;;;2.53;;
47025;SDS011;32783;51.756;-2.556;2023-06-14T08:49:42;2.42;;;2.20;;
47025;SDS011;32783;51.756;-2.556;2023-06-14T08:52:10;3.42;;;2.50;;
47025;SDS011;32783;51.756;-2.556;2023-06-14T08:54:37;3.50;;;2.33;;
47025;SDS011;32783;51.756;-2.556;2023-06-14T08:57:08;2.85;;;1.80;;
47025;SDS011;32783;51.756;-2.556;2023-06-14T08:59:40;3.47;;;2.40;;
47025;SDS011;32783;51.756;-2.556;2023-06-14T09:02:14;5.22;;;2.50;;
47025;SDS011;32783;51.756;-2.556;2023-06-14T09:04:44;6.82;;;2.80;;
47025;SDS011;32783;51.756;-2.556;2023-06-14T09:07:10;4.05;;;2.47;;
47025;SDS011;32783;51.756;-2.556;2023-06-14T09:09:42;8.40;;;2.72;;
47025;SDS011;32783;51.756;-2.556;2023-06-14T09:12:08;6.18;;;2.28;;
47025;SDS011;32783;51.756;-2.556;2023-06-14T09:14:36;5.85;;;2.60;;
47025;SDS011;32783;51.756;-2.556;2023-06-14T09:17:04;3.00;;;2.47;;
47025;SDS011;32783;51.756;-2.556;2023-06-14T09:19:30;3.97;;;2.60;;
47025;SDS011;32783;51.756;-2.556;2023-06-14T09:21:56;7.18;;;2.50;;
47025;SDS011;32783;51.756;-2.556;2023-06-14T09:24:24;3.05;;;1.92;;
47025;SDS011;32783;51.756;-2.556;2023-06-14T09:26:51;6.10;;;2.80;;
47025;SDS011;32783;51.756;-2.556;2023-06-14T09:29:20;13.73;;;2.95;;
47025;SDS011;32783;51.756;-2.556;2023-06-14T09:34:12;3.70;;;2.20;;
47025;SDS011;32783;51.756;-2.556;2023-06-14T09:36:39;3.13;;;2.40;;
47025;SDS011;32783;51.756;-2.556;2023-06-14T09:39:08;3.15;;;2.10;;
47025;SDS011;32783;51.756;-2.556;2023-06-14T09:41:35;3.35;;;2.10;;
47025;SDS011;32783;51.756;-2.556;2023-06-14T09:44:03;3.13;;;2.20;;
47025;SDS011;32783;51.756;-2.556;2023-06-14T09:46:30;3.78;;;2.53;;
47025;SDS011;32783;51.756;-2.556;2023-06-14T09:48:56;3.80;;;2.08;;
47025;SDS011;32783;51.756;-2.556;2023-06-14T09:51:22;3.55;;;2.08;;
47025;SDS011;32783;51.756;-2.556;2023-06-14T09:53:48;2.63;;;2.10;;
47025;SDS011;32783;51.756;-2.556;2023-06-14T09:56:31;3.40;;;2.25;;
47025;SDS011;32783;51.756;-2.556;2023-06-14T09:58:59;4.28;;;2.47;;
47025;SDS011;32783;51.756;-2.556;2023-06-14T10:01:25;2.80;;;1.98;;
47025;SDS011;32783;51.756;-2.556;2023-06-14T10:03:54;2.67;;;2.00;;
47025;SDS011;32783;51.756;-2.556;2023-06-14T10:06:22;2.38;;;1.90;;
47025;SDS011;32783;51.756;-2.556;2023-06-14T10:08:49;3.78;;;2.15;;
47025;SDS011;32783;51.756;-2.556;2023-06-14T10:11:17;3.37;;;2.43;;
47025;SDS011;32783;51.756;-2.556;2023-06-14T10:13:42;4.35;;;2.38;;
47025;SDS011;32783;51.756;-2.556;2023-06-14T10:18:49;2.38;;;1.70;;
47025;SDS011;32783;51.756;-2.556;2023-06-14T10:23:47;3.92;;;1.90;;
47025;SDS011;32783;51.756;-2.556;2023-06-14T10:26:20;2.35;;;1.90;;
47025;SDS011;32783;51.756;-2.556;2023-06-14T10:28:56;3.20;;;2.17;;
47025;SDS011;32783;51.756;-2.556;2023-06-14T10:31:32;2.70;;;2.45;;
47025;SDS011;32783;51.756;-2.556;2023-06-14T10:34:05;3.47;;;2.15;;
47025;SDS011;32783;51.756;-2.556;2023-06-14T10:36:31;5.75;;;2.25;;
47025;SDS011;32783;51.756;-2.556;2023-06-14T10:41:26;4.65;;;2.17;;
47025;SDS011;32783;51.756;-2.556;2023-06-14T10:43:53;1.90;;;1.60;;
47025;SDS011;32783;51.756;-2.556;2023-06-14T10:46:57;5.10;;;1.85;;
47025;SDS011;32783;51.756;-2.556;2023-06-14T10:49:42;4.65;;;2.20;;
47025;SDS011;32783;51.756;-2.556;2023-06-14T10:52:10;2.97;;;2.05;;
47025;SDS011;32783;51.756;-2.556;2023-06-14T10:55:26;2.38;;;1.85;;
47025;SDS011;32783;51.756;-2.556;2023-06-14T10:57:43;4.32;;;2.10;;
47025;SDS011;32783;51.756;-2.556;2023-06-14T11:00:11;2.53;;;2.00;;
47025;SDS011;32783;51.756;-2.556;2023-06-14T11:05:27;2.38;;;2.00;;
47025;SDS011;32783;51.756;-2.556;2023-06-14T11:10:46;3.63;;;2.10;;
47025;SDS011;32783;51.756;-2.556;2023-06-14T11:13:12;2.20;;;1.75;;
47025;SDS011;32783;51.756;-2.556;2023-06-14T11:15:38;2.88;;;1.90;;
47025;SDS011;32783;51.756;-2.556;2023-06-14T11:18:07;3.03;;;1.80;;
47025;SDS011;32783;51.756;-2.556;2023-06-14T11:20:35;2.55;;;2.08;;
47025;SDS011;32783;51.756;-2.556;2023-06-14T11:23:01;2.33;;;1.83;;
47025;SDS011;32783;51.756;-2.556;2023-06-14T11:25:27;1.70;;;1.60;;
47025;SDS011;32783;51.756;-2.556;2023-06-14T11:27:55;2.43;;;2.07;;
47025;SDS011;32783;51.756;-2.556;2023-06-14T11:30:21;2.92;;;1.52;;
47025;SDS011;32783;51.756;-2.556;2023-06-14T11:32:47;3.60;;;1.90;;
47025;SDS011;32783;51.756;-2.556;2023-06-14T11:35:14;2.45;;;1.67;;
47025;SDS011;32783;51.756;-2.556;2023-06-14T11:37:40;2.35;;;1.80;;
47025;SDS011;32783;51.756;-2.556;2023-06-14T11:40:07;2.50;;;1.67;;
47025;SDS011;32783;51.756;-2.556;2023-06-14T11:42:33;3.95;;;1.80;;
47025;SDS011;32783;51.756;-2.556;2023-06-14T11:44:59;5.32;;;1.98;;
47025;SDS011;32783;51.756;-2.556;2023-06-14T11:47:31;3.33;;;1.48;;
47025;SDS011;32783;51.756;-2.556;2023-06-14T11:49:58;4.78;;;1.67;;
47025;SDS011;32783;51.756;-2.556;2023-06-14T11:52:23;4.88;;;2.05;;
47025;SDS011;32783;51.756;-2.556;2023-06-14T11:54:49;3.35;;;1.90;;
47025;SDS011;32783;51.756;-2.556;2023-06-14T11:57:14;3.58;;;1.88;;
47025;SDS011;32783;51.756;-2.556;2023-06-14T11:59:40;2.88;;;1.92;;
47025;SDS011;32783;51.756;-2.556;2023-06-14T12:02:05;1.95;;;1.75;;
47025;SDS011;32783;51.756;-2.556;2023-06-14T12:04:31;2.03;;;1.70;;
47025;SDS011;32783;51.756;-2.556;2023-06-14T12:06:57;3.72;;;1.98;;
47025;SDS011;32783;51.756;-2.556;2023-06-14T12:09:23;2.92;;;1.50;;
47025;SDS011;32783;51.756;-2.556;2023-06-14T12:11:50;3.47;;;2.10;;
47025;SDS011;32783;51.756;-2.556;2023-06-14T12:14:16;2.50;;;1.35;;
47025;SDS011;32783;51.756;-2.556;2023-06-14T12:16:41;1.90;;;1.38;;
47025;SDS011;32783;51.756;-2.556;2023-06-14T12:19:08;2.33;;;1.30;;
47025;SDS011;32783;51.756;-2.556;2023-06-14T12:21:42;2.50;;;1.50;;
47025;SDS011;32783;51.756;-2.556;2023-06-14T12:24:12;2.28;;;1.35;;
47025;SDS011;32783;51.756;-2.556;2023-06-14T12:26:38;4.68;;;1.77;;
47025;SDS011;32783;51.756;-2.556;2023-06-14T12:29:05;2.50;;;1.80;;
47025;SDS011;32783;51.756;-2.556;2023-06-14T12:31:32;1.88;;;1.45;;
47025;SDS011;32783;51.756;-2.556;2023-06-14T12:33:57;2.65;;;1.42;;
47025;SDS011;32783;51.756;-2.556;2023-06-14T12:36:22;2.00;;;1.58;;
47025;SDS011;32783;51.756;-2.556;2023-06-14T12:38:48;2.50;;;1.70;;
47025;SDS011;32783;51.756;-2.556;2023-06-14T12:41:14;3.47;;;1.77;;
47025;SDS011;32783;51.756;-2.556;2023-06-14T12:43:40;2.38;;;1.70;;
47025;SDS011;32783;51.756;-2.556;2023-06-14T12:46:05;1.90;;;1.52;;
47025;SDS011;32783;51.756;-2.556;2023-06-14T12:48:31;2.08;;;1.30;;
47025;SDS011;32783;51.756;-2.556;2023-06-14T12:50:57;2.75;;;1.60;;
47025;SDS011;32783;51.756;-2.556;2023-06-14T12:53:23;2.08;;;1.73;;
47025;SDS011;32783;51.756;-2.556;2023-06-14T12:55:48;1.85;;;1.20;;
47025;SDS011;32783;51.756;-2.556;2023-06-14T12:58:14;2.83;;;1.27;;
47025;SDS011;32783;51.756;-2.556;2023-06-14T13:00:39;2.47;;;1.58;;
47025;SDS011;32783;51.756;-2.556;2023-06-14T13:03:05;2.67;;;1.30;;
47025;SDS011;32783;51.756;-2.556;2023-06-14T13:05:30;2.45;;;1.45;;
47025;SDS011;32783;51.756;-2.556;2023-06-14T13:07:58;1.75;;;1.38;;
47025;SDS011;32783;51.756;-2.556;2023-06-14T13:10:24;3.22;;;1.92;;
47025;SDS011;32783;51.756;-2.556;2023-06-14T13:12:50;2.35;;;1.55;;
47025;SDS011;32783;51.756;-2.556;2023-06-14T13:15:15;2.58;;;1.10;;
47025;SDS011;32783;51.756;-2.556;2023-06-14T13:17:40;1.73;;;1.35;;
47025;SDS011;32783;51.756;-2.556;2023-06-14T13:20:07;1.83;;;1.27;;
47025;SDS011;32783;51.756;-2.556;2023-06-14T13:22:33;1.67;;;1.30;;
47025;SDS011;32783;51.756;-2.556;2023-06-14T13:24:59;2.08;;;1.20;;
47025;SDS011;32783;51.756;-2.556;2023-06-14T13:27:25;1.65;;;1.23;;
47025;SDS011;32783;51.756;-2.556;2023-06-14T13:29:51;1.83;;;1.30;;
47025;SDS011;32783;51.756;-2.556;2023-06-14T13:32:16;2.65;;;1.17;;
47025;SDS011;32783;51.756;-2.556;2023-06-14T13:34:42;2.53;;;1.20;;
47025;SDS011;32783;51.756;-2.556;2023-06-14T13:37:07;2.15;;;1.60;;
47025;SDS011;32783;51.756;-2.556;2023-06-14T13:39:33;1.50;;;1.30;;
47025;SDS011;32783;51.756;-2.556;2023-06-14T13:41:58;1.33;;;1.23;;
47025;SDS011;32783;51.756;-2.556;2023-06-14T13:44:23;2.65;;;1.30;;
47025;SDS011;32783;51.756;-2.556;2023-06-14T13:46:51;1.48;;;1.25;;
47025;SDS011;32783;51.756;-2.556;2023-06-14T13:49:16;1.65;;;1.50;;
47025;SDS011;32783;51.756;-2.556;2023-06-14T13:51:42;1.27;;;1.17;;
47025;SDS011;32783;51.756;-2.556;2023-06-14T13:54:07;1.55;;;1.45;;
47025;SDS011;32783;51.756;-2.556;2023-06-14T13:56:32;1.17;;;1.00;;
47025;SDS011;32783;51.756;-2.556;2023-06-14T13:58:58;1.30;;;1.10;;
47025;SDS011;32783;51.756;-2.556;2023-06-14T14:01:25;2.30;;;1.50;;
47025;SDS011;32783;51.756;-2.556;2023-06-14T14:03:51;1.35;;;1.20;;
47025;SDS011;32783;51.756;-2.556;2023-06-14T14:06:17;1.67;;;1.30;;
47025;SDS011;32783;51.756;-2.556;2023-06-14T14:08:42;1.90;;;1.60;;
47025;SDS011;32783;51.756;-2.556;2023-06-14T14:11:08;1.50;;;1.40;;
47025;SDS011;32783;51.756;-2.556;2023-06-14T14:13:34;1.83;;;1.02;;
47025;SDS011;32783;51.756;-2.556;2023-06-14T14:16:01;1.80;;;1.40;;
47025;SDS011;32783;51.756;-2.556;2023-06-14T14:18:27;1.63;;;1.10;;
47025;SDS011;32783;51.756;-2.556;2023-06-14T14:20:52;2.22;;;1.70;;
47025;SDS011;32783;51.756;-2.556;2023-06-14T14:23:18;1.40;;;1.25;;
47025;SDS011;32783;51.756;-2.556;2023-06-14T14:25:45;1.60;;;1.20;;
47025;SDS011;32783;51.756;-2.556;2023-06-14T14:28:10;2.10;;;1.30;;
47025;SDS011;32783;51.756;-2.556;2023-06-14T14:30:36;1.27;;;1.17;;
47025;SDS011;32783;51.756;-2.556;2023-06-14T14:33:04;1.33;;;1.13;;
47025;SDS011;32783;51.756;-2.556;2023-06-14T14:35:30;1.38;;;1.27;;
47025;SDS011;32783;51.756;-2.556;2023-06-14T14:37:56;1.42;;;1.27;;
47025;SDS011;32783;51.756;-2.556;2023-06-14T14:40:21;1.23;;;1.13;;
47025;SDS011;32783;51.756;-2.556;2023-06-14T14:42:47;1.30;;;1.20;;
47025;SDS011;32783;51.756;-2.556;2023-06-14T14:45:12;1.17;;;1.08;;
47025;SDS011;32783;51.756;-2.556;2023-06-14T14:47:38;1.10;;;1.00;;
47025;SDS011;32783;51.756;-2.556;2023-06-14T14:50:03;1.40;;;1.10;;
47025;SDS011;32783;51.756;-2.556;2023-06-14T14:52:29;1.58;;;1.20;;
47025;SDS011;32783;51.756;-2.556;2023-06-14T14:54:54;1.48;;;1.00;;